sensor_id;sensor_type;location;lat;lon;timestamp;pressure;altitude;pressure_sealevel;temperature;humidity
69855;BME280;57146;48.140;16.304;2023-01-29T00:01:58;100380.97;;;-0.84;87.54
69855;BME280;57146;48.140;16.304;2023-01-29T00:04:26;100384.97;;;-0.82;87.11
69855;BME280;57146;48.140;16.304;2023-01-29T00:06:53;100386.53;;;-0.81;87.13
69855;BME280;57146;48.140;16.304;2023-01-29T00:09:24;100391.50;;;-0.86;88.34
69855;BME280;57146;48.140;16.304;2023-01-29T00:11:51;100384.34;;;-0.84;87.77
69855;BME280;57146;48.140;16.304;2023-01-29T00:14:18;100397.06;;;-0.82;87.05
69855;BME280;57146;48.140;16.304;2023-01-29T00:16:46;100392.09;;;-0.84;87.21
69855;BME280;57146;48.140;16.304;2023-01-29T00:19:13;100394.50;;;-0.89;86.75
69855;BME280;57146;48.140;16.304;2023-01-29T00:21:42;100396.47;;;-0.91;85.93
69855;BME280;57146;48.140;16.304;2023-01-29T00:24:32;100397.47;;;-0.92;86.67
69855;BME280;57146;48.140;16.304;2023-01-29T00:27:00;100405.63;;;-0.95;86.34
69855;BME280;57146;48.140;16.304;2023-01-29T00:29:27;100411.78;;;-0.96;87.71
69855;BME280;57146;48.140;16.304;2023-01-29T00:31:54;100399.66;;;-0.95;87.27
69855;BME280;57146;48.140;16.304;2023-01-29T00:34:23;100403.81;;;-0.94;86.55
69855;BME280;57146;48.140;16.304;2023-01-29T00:36:50;100407.59;;;-0.97;86.46
69855;BME280;57146;48.140;16.304;2023-01-29T00:39:17;100399.25;;;-0.99;86.08
69855;BME280;57146;48.140;16.304;2023-01-29T00:41:46;100389.50;;;-0.97;86.54
69855;BME280;57146;48.140;16.304;2023-01-29T00:44:16;100377.78;;;-1.00;86.93
69855;BME280;57146;48.140;16.304;2023-01-29T00:46:44;100378.56;;;-0.99;86.63
69855;BME280;57146;48.140;16.304;2023-01-29T00:49:12;100380.16;;;-0.98;86.88
69855;BME280;57146;48.140;16.304;2023-01-29T00:51:38;100378.38;;;-0.98;85.75
69855;BME280;57146;48.140;16.304;2023-01-29T00:54:06;100389.88;;;-1.00;85.99
69855;BME280;57146;48.140;16.304;2023-01-29T00:56:38;100385.94;;;-0.96;85.87
69855;BME280;57146;48.140;16.304;2023-01-29T00:59:05;100386.72;;;-1.02;85.63
69855;BME280;57146;48.140;16.304;2023-01-29T01:01:33;100395.03;;;-1.07;86.03
69855;BME280;57146;48.140;16.304;2023-01-29T01:04:02;100400.41;;;-1.08;85.26
69855;BME280;57146;48.140;16.304;2023-01-29T01:06:28;100393.84;;;-1.04;84.60
69855;BME280;57146;48.140;16.304;2023-01-29T01:08:58;100385.91;;;-1.03;84.83
69855;BME280;57146;48.140;16.304;2023-01-29T01:11:26;100396.44;;;-1.04;84.37
69855;BME280;57146;48.140;16.304;2023-01-29T01:14:19;100402.81;;;-1.00;83.99
69855;BME280;57146;48.140;16.304;2023-01-29T01:16:48;100399.63;;;-1.09;84.19
69855;BME280;57146;48.140;16.304;2023-01-29T01:19:15;100408.38;;;-1.10;84.62
69855;BME280;57146;48.140;16.304;2023-01-29T01:21:42;100402.38;;;-1.10;84.32
69855;BME280;57146;48.140;16.304;2023-01-29T01:24:11;100403.59;;;-1.06;84.89
69855;BME280;57146;48.140;16.304;2023-01-29T01:26:38;100411.13;;;-1.11;84.74
69855;BME280;57146;48.140;16.304;2023-01-29T01:29:05;100402.97;;;-1.15;84.75
69855;BME280;57146;48.140;16.304;2023-01-29T01:31:37;100402.19;;;-1.15;84.22
69855;BME280;57146;48.140;16.304;2023-01-29T01:34:03;100400.78;;;-1.11;84.30
69855;BME280;57146;48.140;16.304;2023-01-29T01:36:57;100388.66;;;-1.11;83.51
69855;BME280;57146;48.140;16.304;2023-01-29T01:39:26;100390.84;;;-1.14;83.33
69855;BME280;57146;48.140;16.304;2023-01-29T01:41:55;100397.41;;;-1.12;82.83
69855;BME280;57146;48.140;16.304;2023-01-29T01:44:52;100399.78;;;-1.10;83.23
69855;BME280;57146;48.140;16.304;2023-01-29T01:47:26;100399.56;;;-1.22;83.52
69855;BME280;57146;48.140;16.304;2023-01-29T01:50:02;100397.78;;;-1.22;84.21
69855;BME280;57146;48.140;16.304;2023-01-29T01:53:04;100401.38;;;-1.23;84.10
69855;BME280;57146;48.140;16.304;2023-01-29T01:55:45;100392.81;;;-1.23;84.81
69855;BME280;57146;48.140;16.304;2023-01-29T01:58:27;100390.81;;;-1.28;84.35
69855;BME280;57146;48.140;16.304;2023-01-29T02:00:56;100395.78;;;-1.26;83.77
69855;BME280;57146;48.140;16.304;2023-01-29T02:03:26;100397.56;;;-1.27;84.32
69855;BME280;57146;48.140;16.304;2023-01-29T02:05:56;100407.69;;;-1.32;84.91
69855;BME280;57146;48.140;16.304;2023-01-29T02:08:37;100412.28;;;-1.27;84.97
69855;BME280;57146;48.140;16.304;2023-01-29T02:11:07;100411.09;;;-1.31;84.98
69855;BME280;57146;48.140;16.304;2023-01-29T02:13:37;100405.50;;;-1.28;84.99
69855;BME280;57146;48.140;16.304;2023-01-29T02:16:04;100407.28;;;-1.29;85.04
69855;BME280;57146;48.140;16.304;2023-01-29T02:18:34;100413.47;;;-1.30;84.41
69855;BME280;57146;48.140;16.304;2023-01-29T02:21:07;100407.50;;;-1.30;84.46
69855;BME280;57146;48.140;16.304;2023-01-29T02:24:23;100411.50;;;-1.28;84.41
69855;BME280;57146;48.140;16.304;2023-01-29T02:26:52;100421.00;;;-1.28;85.12
69855;BME280;57146;48.140;16.304;2023-01-29T02:29:22;100424.41;;;-1.28;84.83
69855;BME280;57146;48.140;16.304;2023-01-29T02:32:37;100420.63;;;-1.25;84.63
69855;BME280;57146;48.140;16.304;2023-01-29T02:35:24;100418.44;;;-1.28;84.74
69855;BME280;57146;48.140;16.304;2023-01-29T02:37:56;100421.81;;;-1.28;84.35
69855;BME280;57146;48.140;16.304;2023-01-29T02:40:55;100416.66;;;-1.28;84.99
69855;BME280;57146;48.140;16.304;2023-01-29T02:43:46;100418.44;;;-1.28;84.09
69855;BME280;57146;48.140;16.304;2023-01-29T02:46:40;100419.63;;;-1.31;84.71
69855;BME280;57146;48.140;16.304;2023-01-29T02:49:31;100424.56;;;-1.36;84.63
69855;BME280;57146;48.140;16.304;2023-01-29T02:52:53;100430.72;;;-1.37;83.96
69855;BME280;57146;48.140;16.304;2023-01-29T02:55:24;100419.59;;;-1.37;84.25
69855;BME280;57146;48.140;16.304;2023-01-29T02:57:59;100423.97;;;-1.38;83.77
69855;BME280;57146;48.140;16.304;2023-01-29T03:00:36;100430.72;;;-1.37;83.04
69855;BME280;57146;48.140;16.304;2023-01-29T03:03:13;100439.47;;;-1.38;82.49
69855;BME280;57146;48.140;16.304;2023-01-29T03:08:22;100441.44;;;-1.40;82.83
69855;BME280;57146;48.140;16.304;2023-01-29T03:10:55;100442.06;;;-1.38;82.62
69855;BME280;57146;48.140;16.304;2023-01-29T03:16:13;100446.81;;;-1.41;83.08
69855;BME280;57146;48.140;16.304;2023-01-29T03:18:49;100443.22;;;-1.40;82.83
69855;BME280;57146;48.140;16.304;2023-01-29T03:21:28;100446.59;;;-1.40;83.40
69855;BME280;57146;48.140;16.304;2023-01-29T03:23:57;100435.06;;;-1.44;82.77
69855;BME280;57146;48.140;16.304;2023-01-29T03:26:26;100440.03;;;-1.42;82.58
69855;BME280;57146;48.140;16.304;2023-01-29T03:28:53;100445.78;;;-1.47;83.48
69855;BME280;57146;48.140;16.304;2023-01-29T03:31:21;100459.06;;;-1.50;82.94
69855;BME280;57146;48.140;16.304;2023-01-29T03:33:59;100452.53;;;-1.53;81.67
69855;BME280;57146;48.140;16.304;2023-01-29T03:36:34;100451.53;;;-1.52;81.70
69855;BME280;57146;48.140;16.304;2023-01-29T03:39:06;100443.16;;;-1.54;81.78
69855;BME280;57146;48.140;16.304;2023-01-29T03:41:37;100445.16;;;-1.56;82.35
69855;BME280;57146;48.140;16.304;2023-01-29T03:50:01;100433.81;;;-1.55;80.92
69855;BME280;57146;48.140;16.304;2023-01-29T03:52:45;100427.88;;;-1.55;80.69
69855;BME280;57146;48.140;16.304;2023-01-29T03:55:19;100424.50;;;-1.56;81.06
69855;BME280;57146;48.140;16.304;2023-01-29T03:58:35;100416.91;;;-1.57;81.15
69855;BME280;57146;48.140;16.304;2023-01-29T04:01:15;100407.59;;;-1.58;80.24
69855;BME280;57146;48.140;16.304;2023-01-29T04:06:59;100411.16;;;-1.59;80.89
69855;BME280;57146;48.140;16.304;2023-01-29T04:09:42;100409.34;;;-1.65;80.21
69855;BME280;57146;48.140;16.304;2023-01-29T04:12:18;100401.38;;;-1.71;80.60
69855;BME280;57146;48.140;16.304;2023-01-29T04:15:15;100403.75;;;-1.69;80.07
69855;BME280;57146;48.140;16.304;2023-01-29T04:17:51;100397.59;;;-1.68;80.43
69855;BME280;57146;48.140;16.304;2023-01-29T04:20:27;100396.22;;;-1.64;80.11
69855;BME280;57146;48.140;16.304;2023-01-29T04:22:56;100397.81;;;-1.70;80.05
69855;BME280;57146;48.140;16.304;2023-01-29T04:25:28;100395.81;;;-1.67;79.38
69855;BME280;57146;48.140;16.304;2023-01-29T04:30:55;100383.91;;;-1.69;79.40
69855;BME280;57146;48.140;16.304;2023-01-29T04:39:17;100388.44;;;-1.77;78.75
69855;BME280;57146;48.140;16.304;2023-01-29T04:42:14;100394.41;;;-1.77;79.16
69855;BME280;57146;48.140;16.304;2023-01-29T04:50:34;100400.31;;;-1.83;78.19
69855;BME280;57146;48.140;16.304;2023-01-29T04:56:08;100432.66;;;-1.87;77.72
69855;BME280;57146;48.140;16.304;2023-01-29T04:58:43;100437.41;;;-1.90;77.35
69855;BME280;57146;48.140;16.304;2023-01-29T05:01:18;100431.03;;;-1.95;77.12
69855;BME280;57146;48.140;16.304;2023-01-29T05:03:49;100436.78;;;-1.93;77.91
69855;BME280;57146;48.140;16.304;2023-01-29T05:06:42;100434.19;;;-1.99;78.23
69855;BME280;57146;48.140;16.304;2023-01-29T05:09:13;100433.00;;;-1.97;77.61
69855;BME280;57146;48.140;16.304;2023-01-29T05:11:44;100429.56;;;-2.04;77.88
69855;BME280;57146;48.140;16.304;2023-01-29T05:14:16;100430.13;;;-2.08;77.69
69855;BME280;57146;48.140;16.304;2023-01-29T05:16:50;100431.31;;;-2.11;77.95
69855;BME280;57146;48.140;16.304;2023-01-29T05:19:18;100428.91;;;-2.12;78.34
69855;BME280;57146;48.140;16.304;2023-01-29T05:21:49;100436.41;;;-2.18;77.52
69855;BME280;57146;48.140;16.304;2023-01-29T05:24:18;100426.88;;;-2.24;77.23
69855;BME280;57146;48.140;16.304;2023-01-29T05:26:49;100429.81;;;-2.27;77.36
69855;BME280;57146;48.140;16.304;2023-01-29T05:29:16;100436.34;;;-2.31;76.76
69855;BME280;57146;48.140;16.304;2023-01-29T05:31:43;100428.81;;;-2.26;77.15
69855;BME280;57146;48.140;16.304;2023-01-29T05:34:12;100431.75;;;-2.29;76.73
69855;BME280;57146;48.140;16.304;2023-01-29T05:36:38;100419.66;;;-2.28;76.30
69855;BME280;57146;48.140;16.304;2023-01-29T05:39:09;100422.63;;;-2.31;76.90
69855;BME280;57146;48.140;16.304;2023-01-29T05:41:37;100418.03;;;-2.36;75.60
69855;BME280;57146;48.140;16.304;2023-01-29T05:44:05;100429.50;;;-2.38;75.66
69855;BME280;57146;48.140;16.304;2023-01-29T05:46:33;100425.53;;;-2.41;75.95
69855;BME280;57146;48.140;16.304;2023-01-29T05:49:00;100427.50;;;-2.43;76.63
69855;BME280;57146;48.140;16.304;2023-01-29T05:51:27;100429.28;;;-2.44;75.97
69855;BME280;57146;48.140;16.304;2023-01-29T05:53:54;100427.31;;;-2.42;75.76
69855;BME280;57146;48.140;16.304;2023-01-29T05:56:20;100418.34;;;-2.46;75.86
69855;BME280;57146;48.140;16.304;2023-01-29T05:58:48;100417.91;;;-2.49;75.37
69855;BME280;57146;48.140;16.304;2023-01-29T06:01:20;100417.13;;;-2.50;76.13
69855;BME280;57146;48.140;16.304;2023-01-29T06:03:48;100423.88;;;-2.49;76.42
69855;BME280;57146;48.140;16.304;2023-01-29T06:06:16;100419.28;;;-2.53;75.90
69855;BME280;57146;48.140;16.304;2023-01-29T06:08:44;100408.97;;;-2.53;75.29
69855;BME280;57146;48.140;16.304;2023-01-29T06:11:13;100415.72;;;-2.52;75.62
69855;BME280;57146;48.140;16.304;2023-01-29T06:13:42;100407.00;;;-2.51;76.04
69855;BME280;57146;48.140;16.304;2023-01-29T06:16:11;100411.97;;;-2.50;76.39
69855;BME280;57146;48.140;16.304;2023-01-29T06:18:40;100414.75;;;-2.51;75.80
69855;BME280;57146;48.140;16.304;2023-01-29T06:21:34;100412.16;;;-2.51;75.64
69855;BME280;57146;48.140;16.304;2023-01-29T06:24:01;100412.88;;;-2.57;75.64
69855;BME280;57146;48.140;16.304;2023-01-29T06:26:53;100405.59;;;-2.54;75.67
69855;BME280;57146;48.140;16.304;2023-01-29T06:29:22;100424.25;;;-2.52;75.65
69855;BME280;57146;48.140;16.304;2023-01-29T06:31:50;100421.84;;;-2.53;75.73
69855;BME280;57146;48.140;16.304;2023-01-29T06:34:18;100416.63;;;-2.60;75.38
69855;BME280;57146;48.140;16.304;2023-01-29T06:36:46;100411.66;;;-2.61;75.62
69855;BME280;57146;48.140;16.304;2023-01-29T06:39:14;100416.19;;;-2.63;76.64
69855;BME280;57146;48.140;16.304;2023-01-29T06:41:41;100422.59;;;-2.59;76.10
69855;BME280;57146;48.140;16.304;2023-01-29T06:44:10;100423.13;;;-2.64;75.84
69855;BME280;57146;48.140;16.304;2023-01-29T06:46:41;100418.59;;;-2.62;75.57
69855;BME280;57146;48.140;16.304;2023-01-29T06:49:08;100422.19;;;-2.63;76.29
69855;BME280;57146;48.140;16.304;2023-01-29T06:51:38;100424.75;;;-2.63;76.55
69855;BME280;57146;48.140;16.304;2023-01-29T06:54:05;100427.34;;;-2.63;75.75
69855;BME280;57146;48.140;16.304;2023-01-29T06:56:32;100416.81;;;-2.61;75.48
69855;BME280;57146;48.140;16.304;2023-01-29T06:58:58;100419.97;;;-2.66;75.59
69855;BME280;57146;48.140;16.304;2023-01-29T07:01:28;100425.50;;;-2.69;75.48
69855;BME280;57146;48.140;16.304;2023-01-29T07:04:02;100424.44;;;-2.75;74.46
69855;BME280;57146;48.140;16.304;2023-01-29T07:06:33;100420.25;;;-2.76;74.82
69855;BME280;57146;48.140;16.304;2023-01-29T07:09:00;100417.31;;;-2.73;74.53
69855;BME280;57146;48.140;16.304;2023-01-29T07:11:27;100417.69;;;-2.76;75.54
69855;BME280;57146;48.140;16.304;2023-01-29T07:13:54;100410.59;;;-2.74;75.57
69855;BME280;57146;48.140;16.304;2023-01-29T07:16:21;100416.91;;;-2.76;75.77
69855;BME280;57146;48.140;16.304;2023-01-29T07:19:14;100405.78;;;-2.77;76.70
69855;BME280;57146;48.140;16.304;2023-01-29T07:21:44;100408.38;;;-2.77;75.43
69855;BME280;57146;48.140;16.304;2023-01-29T07:24:11;100414.13;;;-2.75;73.74
69855;BME280;57146;48.140;16.304;2023-01-29T07:26:39;100411.88;;;-2.84;75.02
69855;BME280;57146;48.140;16.304;2023-01-29T07:29:05;100420.47;;;-2.77;75.78
69855;BME280;57146;48.140;16.304;2023-01-29T07:31:32;100417.25;;;-2.79;75.02
69855;BME280;57146;48.140;16.304;2023-01-29T07:34:24;100423.84;;;-2.77;74.80
69855;BME280;57146;48.140;16.304;2023-01-29T07:36:54;100419.28;;;-2.75;74.41
69855;BME280;57146;48.140;16.304;2023-01-29T07:39:22;100424.44;;;-2.75;74.93
69855;BME280;57146;48.140;16.304;2023-01-29T07:41:49;100428.22;;;-2.71;74.42
69855;BME280;57146;48.140;16.304;2023-01-29T07:44:17;100417.91;;;-2.71;74.86
69855;BME280;57146;48.140;16.304;2023-01-29T07:46:47;100420.50;;;-2.71;74.62
69855;BME280;57146;48.140;16.304;2023-01-29T07:49:15;100411.81;;;-2.70;74.89
69855;BME280;57146;48.140;16.304;2023-01-29T07:51:42;100419.53;;;-2.70;74.71
69855;BME280;57146;48.140;16.304;2023-01-29T07:54:33;100419.69;;;-2.71;74.75
69855;BME280;57146;48.140;16.304;2023-01-29T07:57:00;100421.06;;;-2.75;74.19
69855;BME280;57146;48.140;16.304;2023-01-29T07:59:31;100426.41;;;-2.77;74.01
69855;BME280;57146;48.140;16.304;2023-01-29T08:02:00;100425.22;;;-2.74;74.56
69855;BME280;57146;48.140;16.304;2023-01-29T08:04:27;100422.84;;;-2.76;74.61
69855;BME280;57146;48.140;16.304;2023-01-29T08:06:54;100428.44;;;-2.72;74.81
69855;BME280;57146;48.140;16.304;2023-01-29T08:09:21;100433.38;;;-2.71;74.78
69855;BME280;57146;48.140;16.304;2023-01-29T08:11:48;100433.22;;;-2.69;75.10
69855;BME280;57146;48.140;16.304;2023-01-29T08:14:20;100441.19;;;-2.64;74.36
69855;BME280;57146;48.140;16.304;2023-01-29T08:16:47;100447.13;;;-2.63;75.31
69855;BME280;57146;48.140;16.304;2023-01-29T08:19:39;100432.34;;;-2.76;74.50
69855;BME280;57146;48.140;16.304;2023-01-29T08:22:06;100435.38;;;-2.73;74.88
69855;BME280;57146;48.140;16.304;2023-01-29T08:24:34;100437.50;;;-2.76;74.02
69855;BME280;57146;48.140;16.304;2023-01-29T08:27:23;100439.28;;;-2.77;74.61
69855;BME280;57146;48.140;16.304;2023-01-29T08:29:50;100435.97;;;-2.71;75.50
69855;BME280;57146;48.140;16.304;2023-01-29T08:32:18;100433.59;;;-2.72;74.99
69855;BME280;57146;48.140;16.304;2023-01-29T08:34:45;100433.38;;;-2.71;75.21
69855;BME280;57146;48.140;16.304;2023-01-29T08:37:14;100445.19;;;-2.61;74.78
69855;BME280;57146;48.140;16.304;2023-01-29T08:39:41;100444.97;;;-2.60;74.35
69855;BME280;57146;48.140;16.304;2023-01-29T08:42:31;100455.13;;;-2.58;74.53
69855;BME280;57146;48.140;16.304;2023-01-29T08:44:58;100461.88;;;-2.57;74.84
69855;BME280;57146;48.140;16.304;2023-01-29T08:47:50;100464.81;;;-2.60;74.12
69855;BME280;57146;48.140;16.304;2023-01-29T08:50:22;100455.50;;;-2.61;73.93
69855;BME280;57146;48.140;16.304;2023-01-29T08:52:49;100459.91;;;-2.55;73.75
69855;BME280;57146;48.140;16.304;2023-01-29T08:55:16;100466.31;;;-2.51;74.29
69855;BME280;57146;48.140;16.304;2023-01-29T08:57:43;100473.84;;;-2.50;74.32
69855;BME280;57146;48.140;16.304;2023-01-29T09:00:14;100469.13;;;-2.46;74.19
69855;BME280;57146;48.140;16.304;2023-01-29T09:02:41;100469.75;;;-2.44;75.31
69855;BME280;57146;48.140;16.304;2023-01-29T09:05:08;100470.72;;;-2.45;74.15
69855;BME280;57146;48.140;16.304;2023-01-29T09:07:36;100471.03;;;-2.55;73.90
69855;BME280;57146;48.140;16.304;2023-01-29T09:10:07;100469.88;;;-2.52;73.24
69855;BME280;57146;48.140;16.304;2023-01-29T09:12:34;100473.25;;;-2.52;73.99
69855;BME280;57146;48.140;16.304;2023-01-29T09:15:03;100474.03;;;-2.51;74.50
69855;BME280;57146;48.140;16.304;2023-01-29T09:17:30;100468.25;;;-2.53;73.46
69855;BME280;57146;48.140;16.304;2023-01-29T09:19:58;100467.09;;;-2.51;74.11
69855;BME280;57146;48.140;16.304;2023-01-29T09:22:25;100479.56;;;-2.54;73.77
69855;BME280;57146;48.140;16.304;2023-01-29T09:24:52;100469.31;;;-2.48;73.51
69855;BME280;57146;48.140;16.304;2023-01-29T09:27:19;100474.63;;;-2.49;75.04
69855;BME280;57146;48.140;16.304;2023-01-29T09:29:46;100473.91;;;-2.43;75.84
69855;BME280;57146;48.140;16.304;2023-01-29T09:32:13;100475.88;;;-2.45;73.39
69855;BME280;57146;48.140;16.304;2023-01-29T09:34:45;100468.16;;;-2.45;74.22
69855;BME280;57146;48.140;16.304;2023-01-29T09:37:12;100473.53;;;-2.40;73.30
69855;BME280;57146;48.140;16.304;2023-01-29T09:40:05;100465.25;;;-2.35;73.62
69855;BME280;57146;48.140;16.304;2023-01-29T09:42:49;100473.41;;;-2.32;74.65
69855;BME280;57146;48.140;16.304;2023-01-29T09:45:23;100466.66;;;-2.33;74.05
69855;BME280;57146;48.140;16.304;2023-01-29T09:47:51;100469.47;;;-2.28;74.36
69855;BME280;57146;48.140;16.304;2023-01-29T09:50:23;100472.66;;;-2.26;73.89
69855;BME280;57146;48.140;16.304;2023-01-29T09:53:17;100476.47;;;-2.22;73.67
69855;BME280;57146;48.140;16.304;2023-01-29T09:55:52;100471.72;;;-2.18;72.38
69855;BME280;57146;48.140;16.304;2023-01-29T09:58:28;100477.63;;;-2.24;72.42
69855;BME280;57146;48.140;16.304;2023-01-29T10:04:17;100479.25;;;-2.23;73.43
69855;BME280;57146;48.140;16.304;2023-01-29T10:09:57;100472.88;;;-2.27;72.87
69855;BME280;57146;48.140;16.304;2023-01-29T10:15:49;100466.53;;;-2.25;73.39
69855;BME280;57146;48.140;16.304;2023-01-29T10:18:40;100469.16;;;-2.18;73.67
69855;BME280;57146;48.140;16.304;2023-01-29T10:23:51;100471.56;;;-2.17;73.76
69855;BME280;57146;48.140;16.304;2023-01-29T10:26:26;100465.84;;;-2.12;73.14
69855;BME280;57146;48.140;16.304;2023-01-29T10:28:59;100463.06;;;-2.10;73.07
69855;BME280;57146;48.140;16.304;2023-01-29T10:31:30;100462.09;;;-2.09;73.56
69855;BME280;57146;48.140;16.304;2023-01-29T10:34:11;100453.78;;;-2.05;72.87
69855;BME280;57146;48.140;16.304;2023-01-29T10:36:44;100440.81;;;-2.11;74.19
69855;BME280;57146;48.140;16.304;2023-01-29T10:39:20;100430.88;;;-2.14;73.66
69855;BME280;57146;48.140;16.304;2023-01-29T10:42:12;100429.75;;;-2.05;73.93
69855;BME280;57146;48.140;16.304;2023-01-29T10:51:05;100424.91;;;-1.87;72.93
69855;BME280;57146;48.140;16.304;2023-01-29T10:54:16;100422.56;;;-1.82;73.25
69855;BME280;57146;48.140;16.304;2023-01-29T11:03:14;100418.84;;;-1.73;72.54
69855;BME280;57146;48.140;16.304;2023-01-29T11:11:16;100412.97;;;-1.60;72.75
69855;BME280;57146;48.140;16.304;2023-01-29T11:16:14;100408.59;;;-1.59;73.12
69855;BME280;57146;48.140;16.304;2023-01-29T11:18:55;100395.25;;;-1.63;72.55
69855;BME280;57146;48.140;16.304;2023-01-29T11:21:28;100400.44;;;-1.63;73.01
69855;BME280;57146;48.140;16.304;2023-01-29T11:26:34;100381.72;;;-1.65;73.59
69855;BME280;57146;48.140;16.304;2023-01-29T11:29:04;100376.56;;;-1.65;72.98
69855;BME280;57146;48.140;16.304;2023-01-29T11:31:36;100361.69;;;-1.63;72.45
69855;BME280;57146;48.140;16.304;2023-01-29T11:34:15;100356.72;;;-1.64;73.21
69855;BME280;57146;48.140;16.304;2023-01-29T11:36:44;100357.09;;;-1.67;74.23
69855;BME280;57146;48.140;16.304;2023-01-29T11:39:20;100350.38;;;-1.62;74.06
69855;BME280;57146;48.140;16.304;2023-01-29T11:41:57;100341.88;;;-1.56;73.74
69855;BME280;57146;48.140;16.304;2023-01-29T11:44:31;100333.31;;;-1.56;73.38
69855;BME280;57146;48.140;16.304;2023-01-29T11:49:47;100318.41;;;-1.54;72.54
69855;BME280;57146;48.140;16.304;2023-01-29T11:52:17;100323.00;;;-1.50;73.45
69855;BME280;57146;48.140;16.304;2023-01-29T11:54:51;100316.66;;;-1.47;72.87
69855;BME280;57146;48.140;16.304;2023-01-29T11:59:58;100301.34;;;-1.49;72.25
69855;BME280;57146;48.140;16.304;2023-01-29T12:02:40;100294.19;;;-1.47;72.73
69855;BME280;57146;48.140;16.304;2023-01-29T12:05:33;100288.03;;;-1.52;72.45
69855;BME280;57146;48.140;16.304;2023-01-29T12:08:01;100280.88;;;-1.50;73.08
69855;BME280;57146;48.140;16.304;2023-01-29T12:10:37;100279.50;;;-1.46;73.88
69855;BME280;57146;48.140;16.304;2023-01-29T12:13:26;100270.16;;;-1.47;74.38
69855;BME280;57146;48.140;16.304;2023-01-29T12:16:39;100258.03;;;-1.47;73.36
69855;BME280;57146;48.140;16.304;2023-01-29T12:22:14;100250.31;;;-1.40;73.32
69855;BME280;57146;48.140;16.304;2023-01-29T12:24:56;100250.94;;;-1.31;72.80
69855;BME280;57146;48.140;16.304;2023-01-29T12:27:48;100248.53;;;-1.26;73.32
69855;BME280;57146;48.140;16.304;2023-01-29T12:30:47;100242.38;;;-1.18;73.52
69855;BME280;57146;48.140;16.304;2023-01-29T12:36:23;100233.44;;;-1.09;73.26
69855;BME280;57146;48.140;16.304;2023-01-29T12:38:53;100227.06;;;-1.07;73.68
69855;BME280;57146;48.140;16.304;2023-01-29T12:44:17;100225.88;;;-0.91;73.97
69855;BME280;57146;48.140;16.304;2023-01-29T12:46:51;100223.47;;;-0.79;73.64
69855;BME280;57146;48.140;16.304;2023-01-29T12:49:24;100219.91;;;-0.78;73.40
69855;BME280;57146;48.140;16.304;2023-01-29T12:52:16;100222.28;;;-0.77;73.49
69855;BME280;57146;48.140;16.304;2023-01-29T12:55:26;100219.84;;;-0.72;74.25
69855;BME280;57146;48.140;16.304;2023-01-29T12:57:59;100220.84;;;-0.66;73.35
69855;BME280;57146;48.140;16.304;2023-01-29T13:00:53;100217.66;;;-0.61;73.46
69855;BME280;57146;48.140;16.304;2023-01-29T13:03:51;100211.06;;;-0.51;75.06
69855;BME280;57146;48.140;16.304;2023-01-29T13:06:24;100210.88;;;-0.49;74.96
69855;BME280;57146;48.140;16.304;2023-01-29T13:09:27;100203.47;;;-0.39;76.37
69855;BME280;57146;48.140;16.304;2023-01-29T13:12:06;100204.66;;;-0.35;74.01
69855;BME280;57146;48.140;16.304;2023-01-29T13:14:56;100196.69;;;-0.40;74.22
69855;BME280;57146;48.140;16.304;2023-01-29T13:17:32;100204.88;;;-0.43;73.97
69855;BME280;57146;48.140;16.304;2023-01-29T13:20:11;100189.56;;;-0.44;74.18
69855;BME280;57146;48.140;16.304;2023-01-29T13:22:41;100185.78;;;-0.42;73.01
69855;BME280;57146;48.140;16.304;2023-01-29T13:25:18;100186.97;;;-0.44;73.90
69855;BME280;57146;48.140;16.304;2023-01-29T13:27:47;100188.16;;;-0.40;73.36
69855;BME280;57146;48.140;16.304;2023-01-29T13:30:31;100187.53;;;-0.36;74.55
69855;BME280;57146;48.140;16.304;2023-01-29T13:33:00;100184.53;;;-0.33;73.17
69855;BME280;57146;48.140;16.304;2023-01-29T13:35:44;100181.94;;;-0.33;75.03
69855;BME280;57146;48.140;16.304;2023-01-29T13:38:26;100183.16;;;-0.35;73.61
69855;BME280;57146;48.140;16.304;2023-01-29T13:40:59;100178.00;;;-0.35;73.84
69855;BME280;57146;48.140;16.304;2023-01-29T13:43:32;100180.97;;;-0.32;74.05
69855;BME280;57146;48.140;16.304;2023-01-29T13:46:08;100179.56;;;-0.34;73.66
69855;BME280;57146;48.140;16.304;2023-01-29T13:48:41;100182.16;;;-0.34;74.34
69855;BME280;57146;48.140;16.304;2023-01-29T13:51:12;100178.38;;;-0.32;74.38
69855;BME280;57146;48.140;16.304;2023-01-29T13:53:41;100169.78;;;-0.32;74.37
69855;BME280;57146;48.140;16.304;2023-01-29T13:59:03;100175.34;;;-0.29;73.23
69855;BME280;57146;48.140;16.304;2023-01-29T14:04:27;100182.72;;;-0.26;73.77
69855;BME280;57146;48.140;16.304;2023-01-29T14:10:17;100181.09;;;-0.20;73.23
69855;BME280;57146;48.140;16.304;2023-01-29T14:12:45;100182.69;;;-0.19;74.03
69855;BME280;57146;48.140;16.304;2023-01-29T14:15:25;100180.88;;;-0.18;73.44
69855;BME280;57146;48.140;16.304;2023-01-29T14:17:56;100179.31;;;-0.19;72.82
69855;BME280;57146;48.140;16.304;2023-01-29T14:20:49;100172.34;;;-0.19;73.92
69855;BME280;57146;48.140;16.304;2023-01-29T14:25:50;100175.31;;;-0.15;73.59
69855;BME280;57146;48.140;16.304;2023-01-29T14:28:23;100171.16;;;-0.23;73.78
69855;BME280;57146;48.140;16.304;2023-01-29T14:30:52;100159.84;;;-0.29;74.03
69855;BME280;57146;48.140;16.304;2023-01-29T14:33:29;100159.88;;;-0.35;74.95
69855;BME280;57146;48.140;16.304;2023-01-29T14:36:04;100173.22;;;-0.38;74.06
69855;BME280;57146;48.140;16.304;2023-01-29T14:38:36;100171.81;;;-0.34;74.07
69855;BME280;57146;48.140;16.304;2023-01-29T14:41:20;100165.84;;;-0.35;74.03
69855;BME280;57146;48.140;16.304;2023-01-29T14:43:50;100180.59;;;-0.35;73.82
69855;BME280;57146;48.140;16.304;2023-01-29T14:46:40;100181.97;;;-0.39;74.17
69855;BME280;57146;48.140;16.304;2023-01-29T14:49:10;100179.97;;;-0.37;73.77
69855;BME280;57146;48.140;16.304;2023-01-29T14:51:41;100180.59;;;-0.42;74.99